sensor_id;sensor_type;location;lat;lon;timestamp;temperature;humidity
67093;SHT31;54011;50.772;7.730;2023-03-01T00:01:31;-0.53;71.43
67093;SHT31;54011;50.772;7.730;2023-03-01T00:03:58;-0.42;71.51
67093;SHT31;54011;50.772;7.730;2023-03-01T00:06:24;-0.40;71.41
67093;SHT31;54011;50.772;7.730;2023-03-01T00:08:50;-0.56;71.04
67093;SHT31;54011;50.772;7.730;2023-03-01T00:11:22;-0.36;71.03
67093;SHT31;54011;50.772;7.730;2023-03-01T00:13:50;-0.53;71.08
67093;SHT31;54011;50.772;7.730;2023-03-01T00:16:19;-0.56;71.33
67093;SHT31;54011;50.772;7.730;2023-03-01T00:18:44;-0.58;71.11
67093;SHT31;54011;50.772;7.730;2023-03-01T00:21:10;-0.80;72.18
67093;SHT31;54011;50.772;7.730;2023-03-01T00:23:36;-0.93;73.19
67093;SHT31;54011;50.772;7.730;2023-03-01T00:26:09;-1.10;73.12
67093;SHT31;54011;50.772;7.730;2023-03-01T00:28:38;-1.17;73.56
67093;SHT31;54011;50.772;7.730;2023-03-01T00:31:07;-1.07;73.56
67093;SHT31;54011;50.772;7.730;2023-03-01T00:33:35;-1.20;73.64
67093;SHT31;54011;50.772;7.730;2023-03-01T00:36:03;-1.17;73.44
67093;SHT31;54011;50.772;7.730;2023-03-01T00:38:29;-1.01;73.59
67093;SHT31;54011;50.772;7.730;2023-03-01T00:41:06;-0.94;72.76
67093;SHT31;54011;50.772;7.730;2023-03-01T00:43:32;-1.20;73.29
67093;SHT31;54011;50.772;7.730;2023-03-01T00:46:03;-1.03;72.85
67093;SHT31;54011;50.772;7.730;2023-03-01T00:48:29;-1.08;73.00
67093;SHT31;54011;50.772;7.730;2023-03-01T00:50:56;-1.03;73.09
67093;SHT31;54011;50.772;7.730;2023-03-01T00:53:21;-1.00;72.87
67093;SHT31;54011;50.772;7.730;2023-03-01T00:55:47;-0.86;72.59
67093;SHT31;54011;50.772;7.730;2023-03-01T00:58:12;-0.84;72.14
67093;SHT31;54011;50.772;7.730;2023-03-01T01:00:37;-0.79;72.46
67093;SHT31;54011;50.772;7.730;2023-03-01T01:03:04;-0.81;72.63
67093;SHT31;54011;50.772;7.730;2023-03-01T01:05:29;-0.74;72.43
67093;SHT31;54011;50.772;7.730;2023-03-01T01:07:55;-0.69;72.20
67093;SHT31;54011;50.772;7.730;2023-03-01T01:10:21;-0.76;71.91
67093;SHT31;54011;50.772;7.730;2023-03-01T01:12:47;-0.89;72.46
67093;SHT31;54011;50.772;7.730;2023-03-01T01:15:13;-0.77;72.21
67093;SHT31;54011;50.772;7.730;2023-03-01T01:17:39;-0.98;72.71
67093;SHT31;54011;50.772;7.730;2023-03-01T01:20:06;-1.18;73.12
67093;SHT31;54011;50.772;7.730;2023-03-01T01:22:35;-1.08;72.97
67093;SHT31;54011;50.772;7.730;2023-03-01T01:25:01;-1.24;73.22
67093;SHT31;54011;50.772;7.730;2023-03-01T01:27:29;-1.10;73.07
67093;SHT31;54011;50.772;7.730;2023-03-01T01:29:54;-1.07;72.77
67093;SHT31;54011;50.772;7.730;2023-03-01T01:32:20;-1.00;72.73
67093;SHT31;54011;50.772;7.730;2023-03-01T01:34:46;-0.77;72.22
67093;SHT31;54011;50.772;7.730;2023-03-01T01:37:13;-0.81;72.23
67093;SHT31;54011;50.772;7.730;2023-03-01T01:39:38;-0.79;72.09
67093;SHT31;54011;50.772;7.730;2023-03-01T01:42:04;-0.80;72.20
67093;SHT31;54011;50.772;7.730;2023-03-01T01:44:33;-0.81;72.29
67093;SHT31;54011;50.772;7.730;2023-03-01T01:47:06;-0.80;72.00
67093;SHT31;54011;50.772;7.730;2023-03-01T01:49:43;-0.80;71.86
67093;SHT31;54011;50.772;7.730;2023-03-01T01:52:14;-0.73;72.36
67093;SHT31;54011;50.772;7.730;2023-03-01T01:54:50;-0.93;72.51
67093;SHT31;54011;50.772;7.730;2023-03-01T01:57:20;-1.03;72.83
67093;SHT31;54011;50.772;7.730;2023-03-01T01:59:51;-1.11;73.08
67093;SHT31;54011;50.772;7.730;2023-03-01T02:02:18;-1.17;73.18
67093;SHT31;54011;50.772;7.730;2023-03-01T02:04:44;-1.31;73.54
67093;SHT31;54011;50.772;7.730;2023-03-01T02:07:19;-1.47;73.84
67093;SHT31;54011;50.772;7.730;2023-03-01T02:09:50;-1.47;74.10
67093;SHT31;54011;50.772;7.730;2023-03-01T02:12:20;-1.39;73.51
67093;SHT31;54011;50.772;7.730;2023-03-01T02:14:47;-1.58;73.85
67093;SHT31;54011;50.772;7.730;2023-03-01T02:17:14;-1.75;73.68
67093;SHT31;54011;50.772;7.730;2023-03-01T02:19:51;-1.69;74.00
67093;SHT31;54011;50.772;7.730;2023-03-01T02:22:24;-1.72;74.49
67093;SHT31;54011;50.772;7.730;2023-03-01T02:27:50;-1.69;74.30
67093;SHT31;54011;50.772;7.730;2023-03-01T02:30:20;-1.49;74.04
67093;SHT31;54011;50.772;7.730;2023-03-01T02:32:47;-1.55;74.00
67093;SHT31;54011;50.772;7.730;2023-03-01T02:35:16;-1.68;74.71
67093;SHT31;54011;50.772;7.730;2023-03-01T02:37:43;-1.45;74.70
67093;SHT31;54011;50.772;7.730;2023-03-01T02:40:14;-1.45;74.56
67093;SHT31;54011;50.772;7.730;2023-03-01T02:42:51;-1.47;74.39
67093;SHT31;54011;50.772;7.730;2023-03-01T02:45:17;-1.51;74.69
67093;SHT31;54011;50.772;7.730;2023-03-01T02:47:43;-1.24;74.11
67093;SHT31;54011;50.772;7.730;2023-03-01T02:53:09;-1.42;74.09
67093;SHT31;54011;50.772;7.730;2023-03-01T02:55:36;-1.49;74.17
67093;SHT31;54011;50.772;7.730;2023-03-01T02:58:03;-1.52;74.52
67093;SHT31;54011;50.772;7.730;2023-03-01T03:00:40;-1.49;74.50
67093;SHT31;54011;50.772;7.730;2023-03-01T03:03:14;-1.65;74.66
67093;SHT31;54011;50.772;7.730;2023-03-01T03:05:40;-2.01;74.47
67093;SHT31;54011;50.772;7.730;2023-03-01T03:08:07;-2.20;74.43
67093;SHT31;54011;50.772;7.730;2023-03-01T03:10:40;-2.23;74.88
67093;SHT31;54011;50.772;7.730;2023-03-01T03:13:12;-2.38;74.88
67093;SHT31;54011;50.772;7.730;2023-03-01T03:15:39;-2.54;75.63
67093;SHT31;54011;50.772;7.730;2023-03-01T03:18:08;-2.33;75.94
67093;SHT31;54011;50.772;7.730;2023-03-01T03:20:35;-2.14;75.45
67093;SHT31;54011;50.772;7.730;2023-03-01T03:23:01;-2.01;75.65
67093;SHT31;54011;50.772;7.730;2023-03-01T03:25:28;-1.97;75.50
67093;SHT31;54011;50.772;7.730;2023-03-01T03:27:56;-2.17;75.12
67093;SHT31;54011;50.772;7.730;2023-03-01T03:30:28;-2.34;74.86
67093;SHT31;54011;50.772;7.730;2023-03-01T03:32:55;-2.51;74.87
67093;SHT31;54011;50.772;7.730;2023-03-01T03:35:29;-2.42;75.39
67093;SHT31;54011;50.772;7.730;2023-03-01T03:37:56;-2.29;75.56
67093;SHT31;54011;50.772;7.730;2023-03-01T03:40:39;-2.20;76.22
67093;SHT31;54011;50.772;7.730;2023-03-01T03:43:07;-2.15;76.65
67093;SHT31;54011;50.772;7.730;2023-03-01T03:45:34;-2.13;77.09
67093;SHT31;54011;50.772;7.730;2023-03-01T03:48:01;-2.13;77.03
67093;SHT31;54011;50.772;7.730;2023-03-01T03:50:28;-2.17;76.95
67093;SHT31;54011;50.772;7.730;2023-03-01T03:52:54;-2.11;76.94
67093;SHT31;54011;50.772;7.730;2023-03-01T03:55:21;-2.07;76.79
67093;SHT31;54011;50.772;7.730;2023-03-01T03:57:47;-1.90;76.45
67093;SHT31;54011;50.772;7.730;2023-03-01T04:00:21;-2.01;76.89
67093;SHT31;54011;50.772;7.730;2023-03-01T04:02:50;-2.03;76.98
67093;SHT31;54011;50.772;7.730;2023-03-01T04:05:17;-2.00;76.63
67093;SHT31;54011;50.772;7.730;2023-03-01T04:07:45;-1.96;76.34
67093;SHT31;54011;50.772;7.730;2023-03-01T04:10:14;-2.07;76.56
67093;SHT31;54011;50.772;7.730;2023-03-01T04:12:40;-1.97;76.43
67093;SHT31;54011;50.772;7.730;2023-03-01T04:15:09;-1.93;76.36
67093;SHT31;54011;50.772;7.730;2023-03-01T04:17:42;-1.85;76.23
67093;SHT31;54011;50.772;7.730;2023-03-01T04:20:13;-1.80;76.03
67093;SHT31;54011;50.772;7.730;2023-03-01T04:22:46;-1.80;75.89
67093;SHT31;54011;50.772;7.730;2023-03-01T04:25:12;-1.86;75.84
67093;SHT31;54011;50.772;7.730;2023-03-01T04:27:39;-1.85;75.70
67093;SHT31;54011;50.772;7.730;2023-03-01T04:30:07;-1.80;75.74
67093;SHT31;54011;50.772;7.730;2023-03-01T04:32:33;-1.78;75.44
67093;SHT31;54011;50.772;7.730;2023-03-01T04:35:00;-1.86;75.72
67093;SHT31;54011;50.772;7.730;2023-03-01T04:37:25;-1.91;76.26
67093;SHT31;54011;50.772;7.730;2023-03-01T04:39:51;-1.82;75.90
67093;SHT31;54011;50.772;7.730;2023-03-01T04:42:17;-1.78;75.68
67093;SHT31;54011;50.772;7.730;2023-03-01T04:44:43;-1.73;75.36
67093;SHT31;54011;50.772;7.730;2023-03-01T04:47:10;-1.79;75.40
67093;SHT31;54011;50.772;7.730;2023-03-01T04:49:36;-1.86;75.42
67093;SHT31;54011;50.772;7.730;2023-03-01T04:52:02;-1.90;75.73
67093;SHT31;54011;50.772;7.730;2023-03-01T04:54:30;-1.87;75.33
67093;SHT31;54011;50.772;7.730;2023-03-01T04:56:56;-1.87;75.54
67093;SHT31;54011;50.772;7.730;2023-03-01T04:59:22;-1.91;75.86
67093;SHT31;54011;50.772;7.730;2023-03-01T05:01:52;-1.89;75.50
67093;SHT31;54011;50.772;7.730;2023-03-01T05:04:21;-2.04;76.08
67093;SHT31;54011;50.772;7.730;2023-03-01T05:06:46;-2.15;76.36
67093;SHT31;54011;50.772;7.730;2023-03-01T05:09:12;-2.19;76.52
67093;SHT31;54011;50.772;7.730;2023-03-01T05:11:37;-2.29;76.85
67093;SHT31;54011;50.772;7.730;2023-03-01T05:14:07;-2.29;76.63
67093;SHT31;54011;50.772;7.730;2023-03-01T05:16:34;-2.48;77.46
67093;SHT31;54011;50.772;7.730;2023-03-01T05:18:59;-2.40;77.60
67093;SHT31;54011;50.772;7.730;2023-03-01T05:21:25;-2.47;77.52
67093;SHT31;54011;50.772;7.730;2023-03-01T05:23:51;-2.66;78.01
67093;SHT31;54011;50.772;7.730;2023-03-01T05:26:18;-2.68;78.13
67093;SHT31;54011;50.772;7.730;2023-03-01T05:28:45;-2.78;78.30
67093;SHT31;54011;50.772;7.730;2023-03-01T05:31:11;-2.68;78.43
67093;SHT31;54011;50.772;7.730;2023-03-01T05:33:38;-2.66;78.16
67093;SHT31;54011;50.772;7.730;2023-03-01T05:36:05;-2.68;78.43
67093;SHT31;54011;50.772;7.730;2023-03-01T05:38:31;-2.61;78.36
67093;SHT31;54011;50.772;7.730;2023-03-01T05:40:57;-2.59;77.76
67093;SHT31;54011;50.772;7.730;2023-03-01T05:43:22;-2.51;78.07
67093;SHT31;54011;50.772;7.730;2023-03-01T05:45:48;-2.61;78.18
67093;SHT31;54011;50.772;7.730;2023-03-01T05:48:14;-2.54;78.25
67093;SHT31;54011;50.772;7.730;2023-03-01T05:50:44;-2.44;77.64
67093;SHT31;54011;50.772;7.730;2023-03-01T05:53:12;-2.44;77.06
67093;SHT31;54011;50.772;7.730;2023-03-01T05:55:38;-2.47;77.19
67093;SHT31;54011;50.772;7.730;2023-03-01T05:58:06;-2.59;77.18
67093;SHT31;54011;50.772;7.730;2023-03-01T06:00:32;-2.55;77.11
67093;SHT31;54011;50.772;7.730;2023-03-01T06:02:59;-2.64;77.22
67093;SHT31;54011;50.772;7.730;2023-03-01T06:05:26;-2.79;76.67
67093;SHT31;54011;50.772;7.730;2023-03-01T06:07:53;-2.85;75.44
67093;SHT31;54011;50.772;7.730;2023-03-01T06:10:20;-2.88;76.52
67093;SHT31;54011;50.772;7.730;2023-03-01T06:12:46;-2.69;76.93
67093;SHT31;54011;50.772;7.730;2023-03-01T06:15:13;-2.81;76.12
67093;SHT31;54011;50.772;7.730;2023-03-01T06:17:41;-2.82;75.94
67093;SHT31;54011;50.772;7.730;2023-03-01T06:20:16;-2.90;76.02
67093;SHT31;54011;50.772;7.730;2023-03-01T06:22:43;-2.90;76.20
67093;SHT31;54011;50.772;7.730;2023-03-01T06:25:11;-3.10;75.66
67093;SHT31;54011;50.772;7.730;2023-03-01T06:27:38;-3.13;75.92
67093;SHT31;54011;50.772;7.730;2023-03-01T06:30:04;-3.16;76.40
67093;SHT31;54011;50.772;7.730;2023-03-01T06:32:29;-3.24;76.98
67093;SHT31;54011;50.772;7.730;2023-03-01T06:34:56;-3.09;76.99
67093;SHT31;54011;50.772;7.730;2023-03-01T06:37:21;-3.20;77.07
67093;SHT31;54011;50.772;7.730;2023-03-01T06:39:47;-2.90;77.24
67093;SHT31;54011;50.772;7.730;2023-03-01T06:42:12;-3.19;78.33
67093;SHT31;54011;50.772;7.730;2023-03-01T06:44:38;-3.02;76.68
67093;SHT31;54011;50.772;7.730;2023-03-01T06:47:03;-3.06;76.00
67093;SHT31;54011;50.772;7.730;2023-03-01T06:49:29;-3.16;76.22
67093;SHT31;54011;50.772;7.730;2023-03-01T06:51:55;-3.10;77.04
67093;SHT31;54011;50.772;7.730;2023-03-01T06:54:21;-2.92;76.71
67093;SHT31;54011;50.772;7.730;2023-03-01T06:56:50;-2.92;77.58
67093;SHT31;54011;50.772;7.730;2023-03-01T06:59:16;-2.86;77.58
67093;SHT31;54011;50.772;7.730;2023-03-01T07:01:42;-2.73;76.76
67093;SHT31;54011;50.772;7.730;2023-03-01T07:04:09;-2.85;75.25
67093;SHT31;54011;50.772;7.730;2023-03-01T07:06:38;-2.82;75.69
67093;SHT31;54011;50.772;7.730;2023-03-01T07:09:03;-3.03;75.79
67093;SHT31;54011;50.772;7.730;2023-03-01T07:11:29;-2.93;75.57
67093;SHT31;54011;50.772;7.730;2023-03-01T07:13:54;-2.86;75.63
67093;SHT31;54011;50.772;7.730;2023-03-01T07:16:20;-2.85;76.35
67093;SHT31;54011;50.772;7.730;2023-03-01T07:18:46;-2.69;76.54
67093;SHT31;54011;50.772;7.730;2023-03-01T07:21:13;-2.41;76.13
67093;SHT31;54011;50.772;7.730;2023-03-01T07:23:40;-2.42;76.48
67093;SHT31;54011;50.772;7.730;2023-03-01T07:26:06;-2.24;75.81
67093;SHT31;54011;50.772;7.730;2023-03-01T07:28:32;-2.19;76.26
67093;SHT31;54011;50.772;7.730;2023-03-01T07:31:03;-2.03;75.87
67093;SHT31;54011;50.772;7.730;2023-03-01T07:33:29;-2.13;76.95
67093;SHT31;54011;50.772;7.730;2023-03-01T07:35:59;-1.90;75.90
67093;SHT31;54011;50.772;7.730;2023-03-01T07:38:26;-1.85;74.71
67093;SHT31;54011;50.772;7.730;2023-03-01T07:40:52;-1.93;74.13
67093;SHT31;54011;50.772;7.730;2023-03-01T07:43:17;-2.01;74.24
67093;SHT31;54011;50.772;7.730;2023-03-01T07:45:43;-2.06;74.12
67093;SHT31;54011;50.772;7.730;2023-03-01T07:48:09;-2.14;74.09
67093;SHT31;54011;50.772;7.730;2023-03-01T07:50:34;-1.99;74.28
67093;SHT31;54011;50.772;7.730;2023-03-01T07:53:01;-1.93;74.78
67093;SHT31;54011;50.772;7.730;2023-03-01T07:55:28;-1.76;74.59
67093;SHT31;54011;50.772;7.730;2023-03-01T07:57:54;-1.63;75.49
67093;SHT31;54011;50.772;7.730;2023-03-01T08:00:19;-1.35;75.46
67093;SHT31;54011;50.772;7.730;2023-03-01T08:02:46;-1.12;75.14
67093;SHT31;54011;50.772;7.730;2023-03-01T08:05:11;-0.81;74.16
67093;SHT31;54011;50.772;7.730;2023-03-01T08:07:37;-0.55;73.49
67093;SHT31;54011;50.772;7.730;2023-03-01T08:10:03;-0.59;73.19
67093;SHT31;54011;50.772;7.730;2023-03-01T08:12:28;-0.59;74.33
67093;SHT31;54011;50.772;7.730;2023-03-01T08:14:54;-0.46;73.13
67093;SHT31;54011;50.772;7.730;2023-03-01T08:17:20;-0.07;72.93
67093;SHT31;54011;50.772;7.730;2023-03-01T08:19:45;0.12;72.05
67093;SHT31;54011;50.772;7.730;2023-03-01T08:22:11;0.24;71.85
67093;SHT31;54011;50.772;7.730;2023-03-01T08:24:37;0.34;71.71
67093;SHT31;54011;50.772;7.730;2023-03-01T08:27:05;0.96;70.06
67093;SHT31;54011;50.772;7.730;2023-03-01T08:29:31;1.71;68.03
67093;SHT31;54011;50.772;7.730;2023-03-01T08:31:57;1.97;66.49
67093;SHT31;54011;50.772;7.730;2023-03-01T08:34:22;2.22;65.79
67093;SHT31;54011;50.772;7.730;2023-03-01T08:36:48;2.46;65.94
67093;SHT31;54011;50.772;7.730;2023-03-01T08:39:16;2.59;64.24
67093;SHT31;54011;50.772;7.730;2023-03-01T08:41:43;2.79;64.70
67093;SHT31;54011;50.772;7.730;2023-03-01T08:44:10;2.59;63.89
67093;SHT31;54011;50.772;7.730;2023-03-01T08:46:38;2.62;65.55
67093;SHT31;54011;50.772;7.730;2023-03-01T08:49:11;2.38;65.68
67093;SHT31;54011;50.772;7.730;2023-03-01T08:51:37;3.03;64.84
67093;SHT31;54011;50.772;7.730;2023-03-01T08:54:10;2.73;64.37
67093;SHT31;54011;50.772;7.730;2023-03-01T08:56:37;3.32;63.65
67093;SHT31;54011;50.772;7.730;2023-03-01T08:59:02;3.11;63.44
67093;SHT31;54011;50.772;7.730;2023-03-01T09:01:28;3.18;63.39
67093;SHT31;54011;50.772;7.730;2023-03-01T09:03:53;3.31;63.45
67093;SHT31;54011;50.772;7.730;2023-03-01T09:06:19;3.35;63.04
67093;SHT31;54011;50.772;7.730;2023-03-01T09:08:48;3.31;63.03
67093;SHT31;54011;50.772;7.730;2023-03-01T09:11:17;4.21;61.07
67093;SHT31;54011;50.772;7.730;2023-03-01T09:13:44;3.82;63.13
67093;SHT31;54011;50.772;7.730;2023-03-01T09:16:11;4.13;62.14
67093;SHT31;54011;50.772;7.730;2023-03-01T09:18:37;4.34;60.22
67093;SHT31;54011;50.772;7.730;2023-03-01T09:21:08;5.03;59.30
67093;SHT31;54011;50.772;7.730;2023-03-01T09:23:36;4.60;59.19
67093;SHT31;54011;50.772;7.730;2023-03-01T09:26:02;4.86;58.92
67093;SHT31;54011;50.772;7.730;2023-03-01T09:28:28;5.33;57.27
67093;SHT31;54011;50.772;7.730;2023-03-01T09:30:57;5.75;57.12
67093;SHT31;54011;50.772;7.730;2023-03-01T09:33:24;5.26;56.00
67093;SHT31;54011;50.772;7.730;2023-03-01T09:35:56;6.19;55.97
67093;SHT31;54011;50.772;7.730;2023-03-01T09:38:21;5.95;55.32
67093;SHT31;54011;50.772;7.730;2023-03-01T09:40:48;5.48;55.97
67093;SHT31;54011;50.772;7.730;2023-03-01T09:43:29;5.70;54.69
67093;SHT31;54011;50.772;7.730;2023-03-01T09:46:00;6.42;53.39
67093;SHT31;54011;50.772;7.730;2023-03-01T09:49:15;6.37;51.62
67093;SHT31;54011;50.772;7.730;2023-03-01T09:51:30;7.32;51.51
67093;SHT31;54011;50.772;7.730;2023-03-01T09:53:58;6.37;52.16
67093;SHT31;54011;50.772;7.730;2023-03-01T09:56:34;7.03;51.28
67093;SHT31;54011;50.772;7.730;2023-03-01T10:01:59;7.52;49.13
67093;SHT31;54011;50.772;7.730;2023-03-01T10:04:45;8.14;48.20
67093;SHT31;54011;50.772;7.730;2023-03-01T10:07:32;8.16;47.52
67093;SHT31;54011;50.772;7.730;2023-03-01T10:10:07;7.96;47.64
67093;SHT31;54011;50.772;7.730;2023-03-01T10:12:35;8.11;46.76
67093;SHT31;54011;50.772;7.730;2023-03-01T10:15:14;8.49;46.74
67093;SHT31;54011;50.772;7.730;2023-03-01T10:18:03;8.06;47.10
67093;SHT31;54011;50.772;7.730;2023-03-01T10:20:43;8.35;46.58
67093;SHT31;54011;50.772;7.730;2023-03-01T10:23:11;8.71;45.62
67093;SHT31;54011;50.772;7.730;2023-03-01T10:31:21;8.69;44.85
67093;SHT31;54011;50.772;7.730;2023-03-01T10:33:47;9.82;42.85
67093;SHT31;54011;50.772;7.730;2023-03-01T10:36:16;10.35;41.92
67093;SHT31;54011;50.772;7.730;2023-03-01T10:38:51;10.22;42.66
67093;SHT31;54011;50.772;7.730;2023-03-01T10:41:20;10.35;41.54
67093;SHT31;54011;50.772;7.730;2023-03-01T10:43:57;10.47;41.77
67093;SHT31;54011;50.772;7.730;2023-03-01T10:46:36;10.57;41.26
67093;SHT31;54011;50.772;7.730;2023-03-01T10:51:41;9.57;42.64
67093;SHT31;54011;50.772;7.730;2023-03-01T10:54:20;10.43;41.64
67093;SHT31;54011;50.772;7.730;2023-03-01T10:56:49;10.23;42.51
67093;SHT31;54011;50.772;7.730;2023-03-01T11:04:30;10.85;39.47
67093;SHT31;54011;50.772;7.730;2023-03-01T11:07:00;10.36;40.48
67093;SHT31;54011;50.772;7.730;2023-03-01T11:09:31;10.71;39.63
67093;SHT31;54011;50.772;7.730;2023-03-01T11:12:05;10.16;40.52
67093;SHT31;54011;50.772;7.730;2023-03-01T11:14:36;10.83;40.15
67093;SHT31;54011;50.772;7.730;2023-03-01T11:17:29;11.11;40.11
67093;SHT31;54011;50.772;7.730;2023-03-01T11:20:13;11.32;39.13
67093;SHT31;54011;50.772;7.730;2023-03-01T11:22:56;11.67;38.96
67093;SHT31;54011;50.772;7.730;2023-03-01T11:25:26;10.73;38.32
67093;SHT31;54011;50.772;7.730;2023-03-01T11:27:53;11.76;38.91
67093;SHT31;54011;50.772;7.730;2023-03-01T11:31:13;12.06;38.66
67093;SHT31;54011;50.772;7.730;2023-03-01T11:38:49;12.40;37.20
67093;SHT31;54011;50.772;7.730;2023-03-01T11:41:20;11.98;38.71
67093;SHT31;54011;50.772;7.730;2023-03-01T11:46:26;11.38;36.65
67093;SHT31;54011;50.772;7.730;2023-03-01T11:49:07;11.98;38.05
67093;SHT31;54011;50.772;7.730;2023-03-01T11:51:42;12.37;37.24
67093;SHT31;54011;50.772;7.730;2023-03-01T11:56:51;12.84;36.80
67093;SHT31;54011;50.772;7.730;2023-03-01T12:01:56;13.89;34.70
67093;SHT31;54011;50.772;7.730;2023-03-01T12:10:20;12.07;37.06
67093;SHT31;54011;50.772;7.730;2023-03-01T12:27:28;14.16;33.25
67093;SHT31;54011;50.772;7.730;2023-03-01T12:38:47;14.45;31.72
67093;SHT31;54011;50.772;7.730;2023-03-01T12:41:48;14.22;32.03
67093;SHT31;54011;50.772;7.730;2023-03-01T12:49:35;14.70;32.19
67093;SHT31;54011;50.772;7.730;2023-03-01T12:52:12;15.11;30.39
67093;SHT31;54011;50.772;7.730;2023-03-01T12:54:38;14.30;30.76
67093;SHT31;54011;50.772;7.730;2023-03-01T12:59:51;14.21;29.32
67093;SHT31;54011;50.772;7.730;2023-03-01T13:02:31;14.67;29.39
67093;SHT31;54011;50.772;7.730;2023-03-01T13:08:07;14.06;30.12
67093;SHT31;54011;50.772;7.730;2023-03-01T13:10:39;15.18;30.00
67093;SHT31;54011;50.772;7.730;2023-03-01T13:15:35;15.76;29.26
67093;SHT31;54011;50.772;7.730;2023-03-01T13:18:03;15.25;28.51
67093;SHT31;54011;50.772;7.730;2023-03-01T13:31:05;15.54;28.11
67093;SHT31;54011;50.772;7.730;2023-03-01T13:35:58;16.53;28.23
67093;SHT31;54011;50.772;7.730;2023-03-01T13:38:47;14.45;29.19
67093;SHT31;54011;50.772;7.730;2023-03-01T13:44:29;16.00;29.23
67093;SHT31;54011;50.772;7.730;2023-03-01T13:47:04;15.75;28.61
67093;SHT31;54011;50.772;7.730;2023-03-01T13:49:53;16.82;26.40
67093;SHT31;54011;50.772;7.730;2023-03-01T13:52:36;17.71;26.03
67093;SHT31;54011;50.772;7.730;2023-03-01T13:57:41;16.18;27.78
67093;SHT31;54011;50.772;7.730;2023-03-01T14:00:24;15.89;27.19
67093;SHT31;54011;50.772;7.730;2023-03-01T14:03:05;16.07;28.46
67093;SHT31;54011;50.772;7.730;2023-03-01T14:05:32;16.44;27.51
67093;SHT31;54011;50.772;7.730;2023-03-01T14:07:58;17.62;27.20
67093;SHT31;54011;50.772;7.730;2023-03-01T14:10:35;16.78;27.05
67093;SHT31;54011;50.772;7.730;2023-03-01T14:18:57;15.97;29.26
67093;SHT31;54011;50.772;7.730;2023-03-01T14:21:29;15.35;29.12
67093;SHT31;54011;50.772;7.730;2023-03-01T14:23:56;16.69;27.45
67093;SHT31;54011;50.772;7.730;2023-03-01T14:26:22;17.85;26.24
67093;SHT31;54011;50.772;7.730;2023-03-01T14:28:49;17.06;26.15
67093;SHT31;54011;50.772;7.730;2023-03-01T14:33:56;17.13;26.76
67093;SHT31;54011;50.772;7.730;2023-03-01T14:36:31;16.14;27.81
67093;SHT31;54011;50.772;7.730;2023-03-01T14:38:57;17.40;26.20
67093;SHT31;54011;50.772;7.730;2023-03-01T14:41:33;18.06;26.76
67093;SHT31;54011;50.772;7.730;2023-03-01T14:44:12;17.26;26.15
67093;SHT31;54011;50.772;7.730;2023-03-01T14:46:41;16.30;29.58
67093;SHT31;54011;50.772;7.730;2023-03-01T14:51:38;17.97;26.87
67093;SHT31;54011;50.772;7.730;2023-03-01T14:54:24;17.13;27.23
67093;SHT31;54011;50.772;7.730;2023-03-01T14:56:52;15.96;27.76
67093;SHT31;54011;50.772;7.730;2023-03-01T14:59:22;16.65;29.48
67093;SHT31;54011;50.772;7.730;2023-03-01T15:01:50;16.53;27.77
67093;SHT31;54011;50.772;7.730;2023-03-01T15:04:17;16.23;28.19
67093;SHT31;54011;50.772;7.730;2023-03-01T15:06:44;16.55;28.36
67093;SHT31;54011;50.772;7.730;2023-03-01T15:09:14;16.33;29.96
67093;SHT31;54011;50.772;7.730;2023-03-01T15:11:43;17.23;27.52
67093;SHT31;54011;50.772;7.730;2023-03-01T15:14:28;17.25;28.32
67093;SHT31;54011;50.772;7.730;2023-03-01T15:16:55;16.20;29.51
67093;SHT31;54011;50.772;7.730;2023-03-01T15:19:24;16.16;28.72
67093;SHT31;54011;50.772;7.730;2023-03-01T15:21:51;15.44;29.31
67093;SHT31;54011;50.772;7.730;2023-03-01T15:24:20;14.56;30.76
67093;SHT31;54011;50.772;7.730;2023-03-01T15:26:59;14.87;31.03
67093;SHT31;54011;50.772;7.730;2023-03-01T15:29:31;14.56;32.12
67093;SHT31;54011;50.772;7.730;2023-03-01T15:32:02;13.70;32.25
67093;SHT31;54011;50.772;7.730;2023-03-01T15:34:33;13.43;33.59
67093;SHT31;54011;50.772;7.730;2023-03-01T15:37:01;13.47;33.56
67093;SHT31;54011;50.772;7.730;2023-03-01T15:39:41;14.98;31.41
67093;SHT31;54011;50.772;7.730;2023-03-01T15:42:36;13.50;32.95
67093;SHT31;54011;50.772;7.730;2023-03-01T15:45:20;12.52;34.84
67093;SHT31;54011;50.772;7.730;2023-03-01T15:47:47;13.47;33.50
67093;SHT31;54011;50.772;7.730;2023-03-01T15:50:31;12.12;35.36
67093;SHT31;54011;50.772;7.730;2023-03-01T15:52:59;13.26;33.59
67093;SHT31;54011;50.772;7.730;2023-03-01T15:55:30;14.12;33.56
67093;SHT31;54011;50.772;7.730;2023-03-01T15:58:17;13.22;32.57
67093;SHT31;54011;50.772;7.730;2023-03-01T16:00:44;13.81;33.05
67093;SHT31;54011;50.772;7.730;2023-03-01T16:03:11;14.02;32.94
67093;SHT31;54011;50.772;7.730;2023-03-01T16:05:37;13.82;32.65
67093;SHT31;54011;50.772;7.730;2023-03-01T16:08:05;13.68;32.98
67093;SHT31;54011;50.772;7.730;2023-03-01T16:10:34;14.00;33.04
67093;SHT31;54011;50.772;7.730;2023-03-01T16:13:00;13.79;32.62
67093;SHT31;54011;50.772;7.730;2023-03-01T16:15:28;12.62;34.57
67093;SHT31;54011;50.772;7.730;2023-03-01T16:17:54;13.00;33.28
67093;SHT31;54011;50.772;7.730;2023-03-01T16:20:21;11.83;34.69
67093;SHT31;54011;50.772;7.730;2023-03-01T16:22:46;12.16;34.58
67093;SHT31;54011;50.772;7.730;2023-03-01T16:25:15;12.10;35.06
67093;SHT31;54011;50.772;7.730;2023-03-01T16:27:43;11.51;35.07
67093;SHT31;54011;50.772;7.730;2023-03-01T16:30:11;12.08;34.45
67093;SHT31;54011;50.772;7.730;2023-03-01T16:32:41;11.94;34.63
67093;SHT31;54011;50.772;7.730;2023-03-01T16:35:08;12.26;35.18
67093;SHT31;54011;50.772;7.730;2023-03-01T16:37:35;12.57;34.46
67093;SHT31;54011;50.772;7.730;2023-03-01T16:40:03;10.35;38.26
67093;SHT31;54011;50.772;7.730;2023-03-01T16:42:33;10.83;37.65
67093;SHT31;54011;50.772;7.730;2023-03-01T16:45:03;11.11;37.25
67093;SHT31;54011;50.772;7.730;2023-03-01T16:47:30;10.36;37.89
67093;SHT31;54011;50.772;7.730;2023-03-01T16:49:56;9.84;38.97
67093;SHT31;54011;50.772;7.730;2023-03-01T16:52:22;9.85;39.43
67093;SHT31;54011;50.772;7.730;2023-03-01T16:54:47;9.94;39.67
67093;SHT31;54011;50.772;7.730;2023-03-01T16:57:13;9.81;40.20
67093;SHT31;54011;50.772;7.730;2023-03-01T16:59:39;9.28;40.53
67093;SHT31;54011;50.772;7.730;2023-03-01T17:02:06;8.75;41.13
67093;SHT31;54011;50.772;7.730;2023-03-01T17:04:36;8.48;41.77
67093;SHT31;54011;50.772;7.730;2023-03-01T17:07:03;8.35;42.15
67093;SHT31;54011;50.772;7.730;2023-03-01T17:09:28;8.26;43.01
67093;SHT31;54011;50.772;7.730;2023-03-01T17:11:54;8.08;43.20
67093;SHT31;54011;50.772;7.730;2023-03-01T17:14:21;8.14;43.58
67093;SHT31;54011;50.772;7.730;2023-03-01T17:16:47;8.18;44.00
67093;SHT31;54011;50.772;7.730;2023-03-01T17:19:12;8.00;43.48
67093;SHT31;54011;50.772;7.730;2023-03-01T17:21:43;7.91;43.86
67093;SHT31;54011;50.772;7.730;2023-03-01T17:24:10;7.42;44.89
67093;SHT31;54011;50.772;7.730;2023-03-01T17:26:37;7.38;44.73
67093;SHT31;54011;50.772;7.730;2023-03-01T17:29:04;7.05;45.48
67093;SHT31;54011;50.772;7.730;2023-03-01T17:31:32;7.18;44.99
67093;SHT31;54011;50.772;7.730;2023-03-01T17:33:58;6.96;45.48